< < Back
Terminal Aerodrome Forecast


Current Version              Previous Versions:   1  2  3  4  5  6  7  8  9  

Terminal Aerodrome Forecast

557
FTUS42 KJAX 170400 AAC
TAFJAX
TAF AMD
KJAX 170404Z 1704/1724 04010KT P6SM BKN018
     FM171300 06018G26KT P6SM BKN025=



Latest METAR

935
SAUS80 KWBC 170700 RRA
MTRJAX
METAR KJAX 170656Z 04012KT 10SM BKN018 BKN024 OVC042 16/12 A3022 RMK AO2
SLP233 T01560122


USA.gov is the U.S. government's official web portal to all federal, state and local government web resources and services.